Time;durP1;ratioP1;P1;durP2;ratioP2;P2;SDS_P1;SDS_P2;PMS_P1;PMS_P2;Temp;Humidity;BMP_temperature;BMP_pressure;BME280_temperature;BME280_humidity;BME280_pressure;Samples;Min_cycle;Max_cycle;Signal;HPM_P1;HPM_P2
2023/01/17 00:02:10;;;;;;;;;;;18.70;40.10;;;;;;8365660;28;20332;-44
2023/01/17 00:10:29;;;;;;;;;;;18.60;40.10;;;;;;8370007;28;19963;-45
2023/01/17 00:14:30;;;;;;;;;;;18.60;40.10;;;;;;8365558;28;19917;-44
2023/01/17 00:18:30;;;;;;;;;;;18.60;40.10;;;;;;8366320;28;19917;-44
2023/01/17 01:35:02;;;;;;;;;;;18.30;40.30;;;;;;8365638;28;19963;-44
2023/01/17 01:39:03;;;;;;;;;;;18.30;40.30;;;;;;8363528;28;19916;-45
2023/01/17 01:43:04;;;;;;;;;;;18.30;40.30;;;;;;8363244;28;20326;-44
2023/01/17 01:47:06;;;;;;;;;;;18.20;40.30;;;;;;8363094;28;19924;-44
2023/01/17 01:51:08;;;;;;;;;;;18.30;40.30;;;;;;8363582;28;20448;-44
2023/01/17 01:55:16;;;;;;;;;;;18.20;40.30;;;;;;8363604;28;20108;-45
2023/01/17 01:59:18;;;;;;;;;;;18.20;40.30;;;;;;8362709;28;19917;-44
2023/01/17 02:03:21;;;;;;;;;;;18.20;40.30;;;;;;8362933;28;19940;-44
2023/01/17 02:07:30;;;;;;;;;;;18.20;40.30;;;;;;8363432;28;19940;-44
2023/01/17 02:11:31;;;;;;;;;;;18.20;40.30;;;;;;8361685;28;20370;-44
2023/01/17 02:15:37;;;;;;;;;;;18.10;40.30;;;;;;8363207;28;19917;-45
2023/01/17 02:19:38;;;;;;;;;;;18.10;40.30;;;;;;8362794;28;20365;-43
2023/01/17 02:23:43;;;;;;;;;;;18.10;40.30;;;;;;8363027;28;19925;-45
2023/01/17 02:27:52;;;;;;;;;;;18.10;40.30;;;;;;8369570;28;19939;-43
2023/01/17 02:32:07;;;;;;;;;;;18.10;40.30;;;;;;8368897;28;19917;-43
2023/01/17 02:36:11;;;;;;;;;;;18.10;40.30;;;;;;8369075;28;19960;-43
2023/01/17 02:40:13;;;;;;;;;;;18.10;40.30;;;;;;8369046;28;19917;-43
2023/01/17 02:44:18;;;;;;;;;;;18.10;40.30;;;;;;8368346;28;19979;-44
2023/01/17 02:48:21;;;;;;;;;;;18.00;40.30;;;;;;8368835;28;20023;-44
2023/01/17 02:52:21;;;;;;;;;;;18.10;40.30;;;;;;8367680;28;19913;-44
2023/01/17 02:56:22;;;;;;;;;;;18.00;40.30;;;;;;8368270;28;19925;-44
2023/01/17 03:00:34;;;;;;;;;;;18.00;40.30;;;;;;8368420;28;19917;-43
2023/01/17 03:04:46;;;;;;;;;;;18.00;40.30;;;;;;8368192;28;19916;-44
2023/01/17 03:08:49;;;;;;;;;;;18.00;40.40;;;;;;8367674;28;20309;-44
2023/01/17 03:12:49;;;;;;;;;;;18.00;40.40;;;;;;8368256;28;20281;-44
2023/01/17 03:16:50;;;;;;;;;;;18.00;40.30;;;;;;8367853;28;19924;-44
2023/01/17 03:20:50;;;;;;;;;;;18.00;40.30;;;;;;8367225;28;20396;-43
2023/01/17 03:24:51;;;;;;;;;;;18.00;40.30;;;;;;8367767;28;19913;-44
2023/01/17 03:28:51;;;;;;;;;;;17.90;40.30;;;;;;8367035;28;19932;-42
2023/01/17 03:32:52;;;;;;;;;;;17.90;40.30;;;;;;8367922;28;19913;-43
2023/01/17 03:36:52;;;;;;;;;;;17.90;40.30;;;;;;8366836;28;20004;-44
2023/01/17 03:40:53;;;;;;;;;;;17.90;40.40;;;;;;8366695;28;19924;-43
2023/01/17 03:44:53;;;;;;;;;;;17.90;40.30;;;;;;8366914;28;19917;-43
2023/01/17 03:48:54;;;;;;;;;;;17.90;40.30;;;;;;8367094;28;20010;-44
2023/01/17 03:52:54;;;;;;;;;;;17.90;40.30;;;;;;8366632;28;19917;-43
2023/01/17 03:56:55;;;;;;;;;;;17.90;40.40;;;;;;8366978;28;19928;-45
2023/01/17 04:00:55;;;;;;;;;;;17.90;40.40;;;;;;8366764;28;19923;-44
2023/01/17 04:04:56;;;;;;;;;;;17.80;40.30;;;;;;8366000;28;20365;-44
2023/01/17 04:08:56;;;;;;;;;;;17.90;40.40;;;;;;8366315;28;20392;-44
2023/01/17 04:12:56;;;;;;;;;;;17.80;40.40;;;;;;8366477;28;19990;-43
2023/01/17 04:16:57;;;;;;;;;;;17.80;40.30;;;;;;8366193;28;19924;-42
2023/01/17 04:20:57;;;;;;;;;;;17.80;40.40;;;;;;8365986;28;19932;-43
2023/01/17 04:24:58;;;;;;;;;;;17.80;40.30;;;;;;8365721;28;19913;-43
2023/01/17 04:28:58;;;;;;;;;;;17.80;40.30;;;;;;8365618;28;19924;-42
2023/01/17 04:32:58;;;;;;;;;;;17.80;40.40;;;;;;8365988;28;20285;-43
2023/01/17 04:36:59;;;;;;;;;;;17.80;40.30;;;;;;8365417;28;20432;-42
2023/01/17 04:40:59;;;;;;;;;;;17.80;40.40;;;;;;8364921;28;19928;-42
2023/01/17 04:45:00;;;;;;;;;;;17.80;40.40;;;;;;8365262;28;19952;-42
2023/01/17 04:49:00;;;;;;;;;;;17.80;40.40;;;;;;8364598;28;19924;-43
2023/01/17 04:53:01;;;;;;;;;;;17.80;40.40;;;;;;8364513;28;19924;-43
2023/01/17 04:57:01;;;;;;;;;;;17.80;40.40;;;;;;8364990;28;19970;-43
2023/01/17 05:01:05;;;;;;;;;;;17.80;40.90;;;;;;8364810;28;20336;-43
2023/01/17 05:05:06;;;;;;;;;;;17.70;40.30;;;;;;8361109;28;20402;-43
2023/01/17 05:09:07;;;;;;;;;;;17.70;40.40;;;;;;8331682;28;19913;-44
2023/01/17 05:13:07;;;;;;;;;;;17.80;40.50;;;;;;8363676;28;20451;-43
2023/01/17 05:17:09;;;;;;;;;;;17.80;40.50;;;;;;8363971;28;20388;-44
2023/01/17 05:21:10;;;;;;;;;;;17.90;40.40;;;;;;8364368;28;19946;-43
2023/01/17 05:25:10;;;;;;;;;;;18.00;40.40;;;;;;8364176;28;19913;-43
2023/01/17 05:29:11;;;;;;;;;;;18.10;40.30;;;;;;8363595;28;19928;-43
2023/01/17 05:33:11;;;;;;;;;;;18.10;40.30;;;;;;8364039;28;20289;-44
2023/01/17 05:37:12;;;;;;;;;;;18.20;40.20;;;;;;8363940;28;19923;-43
2023/01/17 05:41:12;;;;;;;;;;;18.20;40.30;;;;;;8363118;28;19932;-43
2023/01/17 05:45:15;;;;;;;;;;;18.30;40.10;;;;;;8363611;28;20357;-43
2023/01/17 05:49:16;;;;;;;;;;;18.40;40.10;;;;;;8362736;28;19964;-44
2023/01/17 05:53:16;;;;;;;;;;;18.40;40.10;;;;;;8362914;28;19924;-43
2023/01/17 05:57:17;;;;;;;;;;;18.50;40.10;;;;;;8363629;28;20016;-43
2023/01/17 06:01:18;;;;;;;;;;;18.50;40.10;;;;;;8362815;28;19986;-43
2023/01/17 06:05:20;;;;;;;;;;;18.60;40.00;;;;;;8362754;28;20274;-43
2023/01/17 06:09:20;;;;;;;;;;;18.60;39.90;;;;;;8363264;28;19919;-44
2023/01/17 06:13:20;;;;;;;;;;;18.60;39.80;;;;;;8363184;28;20297;-43
2023/01/17 06:17:21;;;;;;;;;;;18.70;39.90;;;;;;8362722;28;19917;-43
2023/01/17 06:21:21;;;;;;;;;;;18.70;39.80;;;;;;8362765;28;20305;-43
2023/01/17 06:25:22;;;;;;;;;;;18.70;39.80;;;;;;8362763;28;19966;-44
2023/01/17 06:29:22;;;;;;;;;;;18.70;39.80;;;;;;8362699;28;19917;-43
2023/01/17 06:33:23;;;;;;;;;;;18.80;39.80;;;;;;8362629;28;20388;-43
2023/01/17 06:37:23;;;;;;;;;;;18.80;39.70;;;;;;8363070;28;19923;-44
2023/01/17 06:41:24;;;;;;;;;;;18.80;39.70;;;;;;8362109;28;19925;-43
2023/01/17 06:45:25;;;;;;;;;;;18.90;39.80;;;;;;8362963;28;19920;-43
2023/01/17 06:49:25;;;;;;;;;;;18.90;39.70;;;;;;8362807;28;19944;-43
2023/01/17 06:53:26;;;;;;;;;;;18.90;39.60;;;;;;8361970;28;19916;-44
2023/01/17 06:57:27;;;;;;;;;;;18.90;39.70;;;;;;8362258;28;20020;-43
2023/01/17 07:01:27;;;;;;;;;;;18.90;39.60;;;;;;8362142;28;20583;-44
2023/01/17 07:05:28;;;;;;;;;;;19.00;39.60;;;;;;8361799;28;19917;-43
2023/01/17 07:09:28;;;;;;;;;;;19.00;39.70;;;;;;8362614;28;19913;-43
2023/01/17 07:13:29;;;;;;;;;;;19.00;39.70;;;;;;8367155;28;19956;-43
2023/01/17 07:17:30;;;;;;;;;;;19.00;39.60;;;;;;8367426;28;19962;-43
2023/01/17 07:21:30;;;;;;;;;;;19.00;39.60;;;;;;8367549;28;19925;-43
2023/01/17 07:25:30;;;;;;;;;;;19.10;39.60;;;;;;8367679;28;19917;-43
2023/01/17 07:29:31;;;;;;;;;;;19.10;39.50;;;;;;8367364;28;19913;-43
2023/01/17 07:33:31;;;;;;;;;;;19.10;39.50;;;;;;8367446;28;20369;-44
2023/01/17 07:37:32;;;;;;;;;;;19.10;39.60;;;;;;8367408;28;19916;-43
2023/01/17 07:41:34;;;;;;;;;;;19.10;39.60;;;;;;8366690;28;20019;-43
2023/01/17 07:45:34;;;;;;;;;;;19.20;39.60;;;;;;8367421;28;19925;-42
2023/01/17 07:49:35;;;;;;;;;;;19.20;39.50;;;;;;8367169;28;19924;-44
2023/01/17 07:53:35;;;;;;;;;;;19.20;39.60;;;;;;8366365;28;19916;-44
2023/01/17 07:57:36;;;;;;;;;;;19.20;39.50;;;;;;8366732;28;19921;-45
2023/01/17 08:01:37;;;;;;;;;;;19.20;39.60;;;;;;8366278;28;19921;-44
2023/01/17 08:05:37;;;;;;;;;;;19.20;39.40;;;;;;8365944;28;19921;-43
2023/01/17 08:09:37;;;;;;;;;;;19.20;39.50;;;;;;8366741;28;19973;-44
2023/01/17 08:13:39;;;;;;;;;;;19.20;39.40;;;;;;8364635;28;19917;-44
2023/01/17 08:17:43;;;;;;;;;;;19.20;39.40;;;;;;8365511;28;20421;-43
2023/01/17 08:21:44;;;;;;;;;;;19.20;39.40;;;;;;8365707;28;20028;-44
2023/01/17 08:25:44;;;;;;;;;;;19.20;39.40;;;;;;8365847;28;19917;-44
2023/01/17 08:29:47;;;;;;;;;;;19.20;39.40;;;;;;8365344;28;19917;-44
2023/01/17 08:33:47;;;;;;;;;;;19.10;39.30;;;;;;8365627;28;20262;-45
2023/01/17 08:37:51;;;;;;;;;;;19.10;39.30;;;;;;8365419;28;19917;-44
2023/01/17 08:41:52;;;;;;;;;;;19.10;39.30;;;;;;8365071;28;19970;-43
2023/01/17 08:45:54;;;;;;;;;;;19.10;39.30;;;;;;8365369;28;19913;-43
2023/01/17 08:49:57;;;;;;;;;;;19.00;39.30;;;;;;8364809;28;19917;-44
2023/01/17 08:53:58;;;;;;;;;;;19.00;39.40;;;;;;8364737;28;19921;-45
2023/01/17 08:57:58;;;;;;;;;;;19.00;39.30;;;;;;8365099;28;20293;-44
2023/01/17 09:02:00;;;;;;;;;;;18.90;39.30;;;;;;8363993;28;20461;-44
2023/01/17 09:06:00;;;;;;;;;;;18.90;39.40;;;;;;8364348;28;19917;-45
2023/01/17 09:10:01;;;;;;;;;;;18.90;39.40;;;;;;8364522;28;19917;-45
2023/01/17 09:14:01;;;;;;;;;;;18.90;39.40;;;;;;8363807;28;19917;-45
2023/01/17 09:18:02;;;;;;;;;;;18.80;39.40;;;;;;8364149;28;19924;-44
2023/01/17 09:22:03;;;;;;;;;;;18.80;39.40;;;;;;8364195;28;19966;-44
2023/01/17 09:26:04;;;;;;;;;;;18.80;39.50;;;;;;8363528;28;20500;-44
2023/01/17 09:30:04;;;;;;;;;;;18.70;39.50;;;;;;8363903;28;20003;-44
2023/01/17 09:34:05;;;;;;;;;;;18.70;39.60;;;;;;8363273;28;20324;-45
2023/01/17 09:38:06;;;;;;;;;;;18.70;39.60;;;;;;8363111;28;19917;-45
2023/01/17 09:42:18;;;;;;;;;;;18.70;39.60;;;;;;8363556;28;19921;-43
2023/01/17 09:46:22;;;;;;;;;;;18.70;39.60;;;;;;8363510;28;20285;-44
2023/01/17 09:50:41;;;;;;;;;;;18.60;39.60;;;;;;8363249;28;20374;-45
2023/01/17 09:54:43;;;;;;;;;;;18.60;39.60;;;;;;8363156;28;19921;-47
2023/01/17 09:58:56;;;;;;;;;;;18.60;39.70;;;;;;8363104;28;19923;-43
2023/01/17 10:03:07;;;;;;;;;;;18.60;39.70;;;;;;8362603;28;19928;-45
2023/01/17 10:07:31;;;;;;;;;;;18.50;39.70;;;;;;8363244;28;19974;-44
2023/01/17 10:11:50;;;;;;;;;;;18.50;39.70;;;;;;8362542;28;19912;-45
2023/01/17 10:16:00;;;;;;;;;;;18.50;39.70;;;;;;8363535;28;19920;-46
2023/01/17 10:20:06;;;;;;;;;;;18.50;39.80;;;;;;8362523;28;19917;-46
2023/01/17 10:24:17;;;;;;;;;;;18.50;39.80;;;;;;8363057;28;19924;-45
2023/01/17 10:28:32;;;;;;;;;;;18.50;39.80;;;;;;8363039;28;19955;-45
2023/01/17 10:32:34;;;;;;;;;;;18.40;39.70;;;;;;8362458;28;19917;-44
2023/01/17 10:36:42;;;;;;;;;;;18.40;39.80;;;;;;8362779;28;20311;-44
2023/01/17 10:40:53;;;;;;;;;;;18.40;39.80;;;;;;8362815;28;20274;-47
2023/01/17 10:44:57;;;;;;;;;;;18.40;39.80;;;;;;8362087;28;19917;-45
2023/01/17 10:48:57;;;;;;;;;;;18.40;39.80;;;;;;8368483;28;19917;-44
2023/01/17 10:53:15;;;;;;;;;;;18.40;39.80;;;;;;8368252;28;20329;-44
2023/01/17 10:57:20;;;;;;;;;;;18.40;39.80;;;;;;8368873;28;19960;-45
2023/01/17 11:01:21;;;;;;;;;;;18.40;39.80;;;;;;8368675;28;19932;-45
2023/01/17 11:05:24;;;;;;;;;;;18.30;39.80;;;;;;8367876;28;20345;-47
2023/01/17 11:09:36;;;;;;;;;;;18.30;39.90;;;;;;8367270;28;19921;-45
2023/01/17 11:13:37;;;;;;;;;;;18.30;39.90;;;;;;8368025;28;19917;-46
2023/01/17 11:17:44;;;;;;;;;;;18.30;39.90;;;;;;8367282;28;19966;-44
2023/01/17 11:21:49;;;;;;;;;;;18.30;39.80;;;;;;8367885;28;20414;-45
2023/01/17 11:26:03;;;;;;;;;;;18.30;39.90;;;;;;8367955;28;19949;-45
2023/01/17 11:30:14;;;;;;;;;;;18.30;39.90;;;;;;8367657;28;19917;-44
2023/01/17 11:34:16;;;;;;;;;;;18.30;39.90;;;;;;8367510;28;19927;-44
2023/01/17 11:38:18;;;;;;;;;;;18.30;39.90;;;;;;8366917;28;20015;-48
2023/01/17 11:42:51;;;;;;;;;;;18.20;39.90;;;;;;8366937;28;19929;-44
2023/01/17 11:47:09;;;;;;;;;;;18.30;39.90;;;;;;8322594;28;20358;-45
2023/01/17 11:51:16;;;;;;;;;;;18.20;39.90;;;;;;8366857;28;19913;-45
2023/01/17 11:55:16;;;;;;;;;;;18.20;39.90;;;;;;8367002;28;19920;-46
2023/01/17 11:59:36;;;;;;;;;;;18.20;39.90;;;;;;8365539;28;20342;-45
2023/01/17 12:03:45;;;;;;;;;;;18.20;40.00;;;;;;8366537;28;19932;-44
2023/01/17 12:07:51;;;;;;;;;;;18.20;39.90;;;;;;8366450;28;19916;-44
2023/01/17 12:16:37;;;;;;;;;;;18.20;40.00;;;;;;8366518;28;19924;-46
2023/01/17 12:21:03;;;;;;;;;;;18.10;39.90;;;;;;8365452;28;19916;-45
2023/01/17 12:25:07;;;;;;;;;;;18.20;40.00;;;;;;8361883;28;19925;-45
2023/01/17 12:29:26;;;;;;;;;;;18.20;40.00;;;;;;8365037;28;19916;-45
2023/01/17 12:33:33;;;;;;;;;;;18.10;40.00;;;;;;8365608;28;19970;-45
2023/01/17 12:37:38;;;;;;;;;;;18.10;40.00;;;;;;8365314;28;19917;-44
2023/01/17 12:41:54;;;;;;;;;;;18.10;40.00;;;;;;8364931;28;20348;-45
2023/01/17 12:45:54;;;;;;;;;;;18.10;39.90;;;;;;8365272;28;19916;-45
2023/01/17 12:50:02;;;;;;;;;;;18.10;39.90;;;;;;8364552;28;19940;-45
2023/01/17 12:54:08;;;;;;;;;;;18.10;40.00;;;;;;8364943;28;19917;-45
2023/01/17 12:58:15;;;;;;;;;;;18.10;39.90;;;;;;8363751;28;19925;-44
2023/01/17 13:02:18;;;;;;;;;;;18.10;39.90;;;;;;8364556;28;20409;-44
2023/01/17 13:06:38;;;;;;;;;;;18.10;39.90;;;;;;8364595;28;20319;-46
2023/01/17 13:10:57;;;;;;;;;;;18.10;39.90;;;;;;8363582;28;19936;-45
2023/01/17 13:15:01;;;;;;;;;;;18.10;40.00;;;;;;8363126;28;25755;-44
2023/01/17 13:19:07;;;;;;;;;;;18.10;40.00;;;;;;8364211;28;19921;-44
2023/01/17 13:23:27;;;;;;;;;;;18.10;40.00;;;;;;8363476;28;19935;-45
2023/01/17 13:27:46;;;;;;;;;;;18.00;39.90;;;;;;8364357;28;19927;-45
2023/01/17 13:31:47;;;;;;;;;;;18.00;40.00;;;;;;8364010;28;20382;-45
2023/01/17 13:36:06;;;;;;;;;;;18.00;40.00;;;;;;8363282;28;19928;-44
2023/01/17 13:40:25;;;;;;;;;;;18.00;40.00;;;;;;8363544;28;20389;-45
2023/01/17 13:44:27;;;;;;;;;;;18.00;39.90;;;;;;8363124;28;19931;-44
2023/01/17 13:48:32;;;;;;;;;;;18.00;40.00;;;;;;8363455;28;20449;-44
2023/01/17 13:52:32;;;;;;;;;;;18.00;40.00;;;;;;8363556;28;19968;-46
2023/01/17 13:56:33;;;;;;;;;;;18.00;40.00;;;;;;8362357;28;20270;-45
2023/01/17 14:00:34;;;;;;;;;;;18.00;40.10;;;;;;8363320;28;19943;-44
2023/01/17 14:05:09;;;;;;;;;;;17.90;40.00;;;;;;8362268;28;19928;-46
2023/01/17 14:09:13;;;;;;;;;;;17.90;40.00;;;;;;8240277;28;19955;-44
2023/01/17 14:13:32;;;;;;;;;;;17.90;40.00;;;;;;8362753;28;19912;-44
2023/01/17 14:17:35;;;;;;;;;;;17.90;40.10;;;;;;8362543;28;19917;-45
2023/01/17 14:21:35;;;;;;;;;;;17.80;40.00;;;;;;8367162;28;19925;-44
2023/01/17 14:25:37;;;;;;;;;;;17.90;40.00;;;;;;8369719;28;19920;-45
2023/01/17 14:29:41;;;;;;;;;;;17.90;40.10;;;;;;8368705;28;19979;-44
2023/01/17 14:33:41;;;;;;;;;;;17.90;40.10;;;;;;8369264;28;19917;-45
2023/01/17 14:37:42;;;;;;;;;;;17.90;40.10;;;;;;8369071;28;19916;-44
2023/01/17 14:41:42;;;;;;;;;;;17.80;40.10;;;;;;8368378;28;20404;-44
2023/01/17 14:45:43;;;;;;;;;;;17.80;40.10;;;;;;8368855;28;19917;-47
2023/01/17 14:49:44;;;;;;;;;;;17.80;40.10;;;;;;8368368;28;19920;-44
2023/01/17 14:53:52;;;;;;;;;;;17.80;40.10;;;;;;8367865;28;19924;-44
2023/01/17 14:57:54;;;;;;;;;;;17.80;40.20;;;;;;8368940;28;19921;-44
2023/01/17 15:01:57;;;;;;;;;;;17.80;40.10;;;;;;8367982;28;19928;-45
2023/01/17 15:06:04;;;;;;;;;;;17.80;40.20;;;;;;8368619;28;20063;-44
2023/01/17 15:10:09;;;;;;;;;;;17.80;40.20;;;;;;8368133;28;19920;-45
2023/01/17 15:14:10;;;;;;;;;;;17.80;40.20;;;;;;8367647;28;19923;-45
2023/01/17 15:18:19;;;;;;;;;;;17.80;40.10;;;;;;8368195;28;19913;-44
2023/01/17 15:22:19;;;;;;;;;;;17.80;40.10;;;;;;8367993;28;19970;-44
2023/01/17 15:26:22;;;;;;;;;;;17.70;40.10;;;;;;8367386;28;19964;-46
2023/01/17 15:30:24;;;;;;;;;;;17.70;40.10;;;;;;8367563;28;20335;-45
2023/01/17 15:34:25;;;;;;;;;;;17.70;40.10;;;;;;8366446;28;19913;-46
2023/01/17 15:38:26;;;;;;;;;;;17.70;40.10;;;;;;8366569;28;19943;-44
2023/01/17 15:42:30;;;;;;;;;;;17.70;40.10;;;;;;8366974;28;19932;-45
2023/01/17 15:46:32;;;;;;;;;;;17.70;40.10;;;;;;8366894;28;19917;-46
2023/01/17 15:50:37;;;;;;;;;;;17.70;40.10;;;;;;8366540;28;19924;-44
2023/01/17 15:54:43;;;;;;;;;;;17.70;40.10;;;;;;8366877;28;19927;-44
2023/01/17 15:58:44;;;;;;;;;;;17.70;40.10;;;;;;8366740;28;19949;-43
2023/01/17 16:02:44;;;;;;;;;;;17.70;40.10;;;;;;8366235;28;20320;-44
2023/01/17 16:06:45;;;;;;;;;;;17.70;40.10;;;;;;8366377;28;19917;-45
2023/01/17 16:10:46;;;;;;;;;;;17.70;40.30;;;;;;8366238;28;20023;-46
2023/01/17 16:14:46;;;;;;;;;;;17.70;40.10;;;;;;8365326;28;19924;-44
2023/01/17 16:18:47;;;;;;;;;;;17.80;40.10;;;;;;8366268;28;19913;-44
2023/01/17 16:22:48;;;;;;;;;;;17.90;40.10;;;;;;8366153;28;19990;-45
2023/01/17 16:26:48;;;;;;;;;;;18.00;40.00;;;;;;8365271;28;19921;-46
2023/01/17 16:30:49;;;;;;;;;;;18.00;39.90;;;;;;8365771;28;20361;-45
2023/01/17 16:34:49;;;;;;;;;;;18.10;39.90;;;;;;8365322;28;19917;-45
2023/01/17 16:38:50;;;;;;;;;;;18.20;39.80;;;;;;8364699;28;20293;-46
2023/01/17 16:42:51;;;;;;;;;;;18.20;39.70;;;;;;8365135;28;20374;-46
2023/01/17 16:46:51;;;;;;;;;;;18.30;39.70;;;;;;8364591;28;19916;-46
2023/01/17 16:50:52;;;;;;;;;;;18.30;39.60;;;;;;8364376;28;19923;-47
2023/01/17 16:54:52;;;;;;;;;;;18.30;39.60;;;;;;8364740;28;19966;-45
2023/01/17 16:58:53;;;;;;;;;;;18.40;39.60;;;;;;8364489;28;19913;-46
2023/01/17 17:02:53;;;;;;;;;;;18.40;39.50;;;;;;8364229;28;19925;-46
2023/01/17 17:06:54;;;;;;;;;;;18.50;39.50;;;;;;8363175;28;19917;-47
2023/01/17 17:11:04;;;;;;;;;;;18.50;39.50;;;;;;8363899;28;19916;-45
2023/01/17 17:15:05;;;;;;;;;;;18.60;39.50;;;;;;8364281;28;19917;-45
2023/01/17 17:19:06;;;;;;;;;;;18.60;39.40;;;;;;8364057;28;20362;-45
2023/01/17 17:23:08;;;;;;;;;;;18.60;39.50;;;;;;8363775;28;19924;-45
2023/01/17 17:27:09;;;;;;;;;;;18.70;39.40;;;;;;8363698;28;19921;-45
2023/01/17 17:31:09;;;;;;;;;;;18.70;39.50;;;;;;8363582;28;19917;-44
2023/01/17 17:35:10;;;;;;;;;;;18.70;39.40;;;;;;8363287;28;19916;-45
2023/01/17 17:39:12;;;;;;;;;;;18.70;39.40;;;;;;8363591;28;19917;-45
2023/01/17 17:43:12;;;;;;;;;;;18.80;39.40;;;;;;8363612;28;20405;-45
2023/01/17 17:47:14;;;;;;;;;;;18.80;39.40;;;;;;8362930;28;19996;-46
2023/01/17 17:51:25;;;;;;;;;;;18.80;39.30;;;;;;8363451;28;19969;-45
2023/01/17 17:55:27;;;;;;;;;;;18.90;39.40;;;;;;8362800;28;19971;-46
2023/01/17 17:59:28;;;;;;;;;;;18.90;39.40;;;;;;8362443;28;19917;-45
2023/01/17 18:03:29;;;;;;;;;;;18.90;39.30;;;;;;8362025;28;20373;-45
2023/01/17 18:07:31;;;;;;;;;;;19.00;39.30;;;;;;8361170;28;19925;-45
2023/01/17 18:11:32;;;;;;;;;;;19.00;39.40;;;;;;8362389;28;20001;-44
2023/01/17 18:15:32;;;;;;;;;;;19.00;39.30;;;;;;8362497;28;20412;-45
2023/01/17 18:19:33;;;;;;;;;;;19.00;39.30;;;;;;8362702;28;19919;-45
2023/01/17 18:23:33;;;;;;;;;;;19.00;39.30;;;;;;8361831;28;20385;-45
2023/01/17 18:27:34;;;;;;;;;;;19.10;39.40;;;;;;8362049;28;19917;-45
2023/01/17 18:31:34;;;;;;;;;;;19.10;39.40;;;;;;8362346;28;19921;-45
2023/01/17 18:35:35;;;;;;;;;;;19.10;39.30;;;;;;8361855;28;20363;-44
2023/01/17 18:39:35;;;;;;;;;;;19.10;39.30;;;;;;8362784;28;20370;-45
2023/01/17 18:43:35;;;;;;;;;;;19.10;39.30;;;;;;8361896;28;19925;-45
2023/01/17 18:47:36;;;;;;;;;;;19.20;39.40;;;;;;8361257;28;19924;-45
2023/01/17 18:51:37;;;;;;;;;;;19.20;39.40;;;;;;8361974;28;19917;-45
2023/01/17 18:55:37;;;;;;;;;;;19.20;39.40;;;;;;8362143;28;20380;-45
2023/01/17 18:59:38;;;;;;;;;;;19.20;39.40;;;;;;8361611;28;20011;-45
2023/01/17 19:03:39;;;;;;;;;;;19.20;39.40;;;;;;8361483;28;20317;-45
2023/01/17 19:07:40;;;;;;;;;;;19.20;39.40;;;;;;8364555;28;19928;-45
2023/01/17 19:11:43;;;;;;;;;;;19.20;39.40;;;;;;8367808;28;19916;-44
2023/01/17 19:15:43;;;;;;;;;;;19.30;40.10;;;;;;8368302;28;20400;-44
2023/01/17 19:19:44;;;;;;;;;;;19.30;39.60;;;;;;8368147;28;19956;-44
2023/01/17 19:23:44;;;;;;;;;;;19.30;39.50;;;;;;8367278;28;19925;-44
2023/01/17 19:27:45;;;;;;;;;;;19.30;39.60;;;;;;8367836;28;20003;-44
2023/01/17 19:31:45;;;;;;;;;;;19.30;39.50;;;;;;8367557;28;19917;-44
2023/01/17 19:35:45;;;;;;;;;;;19.40;39.60;;;;;;8367196;28;19924;-44
2023/01/17 19:39:46;;;;;;;;;;;19.40;39.60;;;;;;8367852;28;19935;-44
2023/01/17 19:43:46;;;;;;;;;;;19.40;39.50;;;;;;8367368;28;19924;-46
2023/01/17 19:47:47;;;;;;;;;;;19.40;39.60;;;;;;8366672;28;19924;-45
2023/01/17 19:51:48;;;;;;;;;;;19.40;39.50;;;;;;8367029;28;19917;-45
2023/01/17 19:55:49;;;;;;;;;;;19.40;39.60;;;;;;8366858;28;19925;-45
2023/01/17 19:59:49;;;;;;;;;;;19.50;39.60;;;;;;8366438;28;19919;-45
2023/01/17 20:03:50;;;;;;;;;;;19.40;39.60;;;;;;8366757;28;19925;-45
2023/01/17 20:07:51;;;;;;;;;;;19.50;39.60;;;;;;8348743;28;19960;-46
2023/01/17 20:11:52;;;;;;;;;;;19.50;39.60;;;;;;8346400;28;19916;-45
2023/01/17 20:15:52;;;;;;;;;;;19.50;40.10;;;;;;8366389;28;19917;-44
2023/01/17 20:19:53;;;;;;;;;;;19.50;39.70;;;;;;8365313;28;20004;-42
2023/01/17 20:23:54;;;;;;;;;;;19.50;39.70;;;;;;8365756;28;19958;-45
2023/01/17 20:27:55;;;;;;;;;;;19.50;39.60;;;;;;8365679;28;20019;-47
2023/01/17 20:31:55;;;;;;;;;;;19.50;39.60;;;;;;8365223;28;19927;-44
2023/01/17 20:36:00;;;;;;;;;;;19.50;39.60;;;;;;8365664;28;19916;-47
2023/01/17 20:40:00;;;;;;;;;;;19.50;39.60;;;;;;8366073;28;20003;-45
2023/01/17 20:44:01;;;;;;;;;;;19.60;39.60;;;;;;8364842;28;19970;-45
2023/01/17 20:48:03;;;;;;;;;;;19.50;39.70;;;;;;8365151;28;20423;-44
2023/01/17 20:52:04;;;;;;;;;;;19.50;39.70;;;;;;8365041;28;20390;-45
2023/01/17 20:56:04;;;;;;;;;;;19.60;39.60;;;;;;8364525;28;19928;-45
2023/01/17 21:00:05;;;;;;;;;;;19.60;39.60;;;;;;8365479;28;19912;-45
2023/01/17 21:04:08;;;;;;;;;;;19.60;39.70;;;;;;8364844;28;19925;-46
2023/01/17 21:08:09;;;;;;;;;;;19.60;39.60;;;;;;8364079;28;19920;-45
2023/01/17 21:12:09;;;;;;;;;;;19.60;39.60;;;;;;8364476;28;19921;-45
2023/01/17 21:16:12;;;;;;;;;;;19.60;39.60;;;;;;8364364;28;19943;-45
2023/01/17 21:20:12;;;;;;;;;;;19.70;39.60;;;;;;8364183;28;19967;-45
2023/01/17 21:24:17;;;;;;;;;;;19.60;39.60;;;;;;8364255;28;19928;-45
2023/01/17 21:28:18;;;;;;;;;;;19.60;39.50;;;;;;8364015;28;20293;-47
2023/01/17 21:32:18;;;;;;;;;;;19.50;39.50;;;;;;8362816;28;19917;-44
2023/01/17 21:36:20;;;;;;;;;;;19.50;39.50;;;;;;8363759;28;19921;-46
2023/01/17 21:40:20;;;;;;;;;;;19.50;39.50;;;;;;8364200;28;19919;-46
2023/01/17 21:44:21;;;;;;;;;;;19.50;39.50;;;;;;8363063;28;19964;-44
2023/01/17 21:48:22;;;;;;;;;;;19.40;39.40;;;;;;8363434;28;19916;-44
2023/01/17 21:52:22;;;;;;;;;;;19.40;39.50;;;;;;8363443;28;19923;-45
2023/01/17 22:00:42;;;;;;;;;;;19.30;39.50;;;;;;8363834;28;19920;-45
2023/01/17 22:04:42;;;;;;;;;;;19.30;39.50;;;;;;8362970;28;19925;-46
2023/01/17 22:08:43;;;;;;;;;;;19.30;39.40;;;;;;8362490;28;19921;-45
2023/01/17 22:12:43;;;;;;;;;;;19.30;39.50;;;;;;8363266;28;19916;-44
2023/01/17 22:16:44;;;;;;;;;;;19.30;39.50;;;;;;8362913;28;20450;-45
2023/01/17 22:20:45;;;;;;;;;;;19.20;39.50;;;;;;8362714;28;19935;-44
2023/01/17 22:24:45;;;;;;;;;;;19.10;39.60;;;;;;8362964;28;19924;-45
2023/01/17 22:28:46;;;;;;;;;;;19.20;39.60;;;;;;8362870;28;19921;-44
2023/01/17 22:32:46;;;;;;;;;;;19.10;39.60;;;;;;8362117;28;20279;-45
2023/01/17 22:36:47;;;;;;;;;;;19.10;39.70;;;;;;8362287;28;19944;-45
2023/01/17 22:40:48;;;;;;;;;;;19.00;39.70;;;;;;8364280;28;19917;-45
2023/01/17 22:44:48;;;;;;;;;;;19.00;39.80;;;;;;8368034;28;19925;-45
2023/01/17 22:48:49;;;;;;;;;;;19.00;39.90;;;;;;8368956;28;19942;-44
2023/01/17 22:52:49;;;;;;;;;;;18.90;40.00;;;;;;8368899;28;19921;-44
2023/01/17 22:56:50;;;;;;;;;;;18.90;40.10;;;;;;8368508;28;20370;-45
2023/01/17 23:00:50;;;;;;;;;;;18.80;40.10;;;;;;8367792;28;19913;-44
2023/01/17 23:04:50;;;;;;;;;;;18.80;40.20;;;;;;8368593;28;19929;-44
2023/01/17 23:08:55;;;;;;;;;;;18.80;40.10;;;;;;8362584;28;19916;-45
2023/01/17 23:12:55;;;;;;;;;;;18.80;40.20;;;;;;8368564;28;19917;-43
2023/01/17 23:21:16;;;;;;;;;;;18.70;40.00;;;;;;8368731;28;20290;-45
2023/01/17 23:25:16;;;;;;;;;;;18.70;40.10;;;;;;8368173;28;19921;-44
2023/01/17 23:29:17;;;;;;;;;;;18.70;40.10;;;;;;8367348;28;19920;-44
2023/01/17 23:33:18;;;;;;;;;;;18.60;40.10;;;;;;8368068;28;20338;-46
2023/01/17 23:37:18;;;;;;;;;;;18.60;40.10;;;;;;8367670;28;19917;-46
2023/01/17 23:45:38;;;;;;;;;;;18.60;40.70;;;;;;8373857;28;19928;-45
2023/01/17 23:49:38;;;;;;;;;;;18.50;40.10;;;;;;8367189;28;19917;-45
2023/01/17 23:53:39;;;;;;;;;;;18.50;40.20;;;;;;8365748;28;20388;-44
2023/01/17 23:57:40;;;;;;;;;;;18.50;40.20;;;;;;8367499;28;20011;-45
